CheckWX is a tool to help pilots better visualize weather data.  It is not intended as a substitute for an official pre-flight weather briefing.

01:03:45 UTC

UNBB TAF
Barnaul Airport
Barnaul, Russian Federation
TAF UNBB 232300Z 2400/2424 18003MPS 9999 SCT030 TEMPO 2400/2403 3100 BR FU SCT003 SCT020 FM240300 19006G11MPS 9999 BKN030CB TEMPO 2409/2424 3100 -SHSN SCT004 BKN011CB

Feb-24@
00:00 UTC

Feb-24 @ 00:00 UTC

Feb-24@
03:00 UTC

Feb-24 @ 03:00 UTC

TAF UNBB 232300Z 2400/2424 18003MPS 9999 SCT030
Wind
  • 180° at 6 KTS
Cloud Levels
  • Scattered at 3,000' AGL

Feb-24@
00:00 UTC

Feb-24 @ 00:00 UTC

Feb-24@
03:00 UTC

Feb-24 @ 03:00 UTC

TEMPO 2400/2403 3100 BR FU SCT003 SCT020

Temporary

Temporary Changes expected for less than half the time period

Conditions
Mist, Smoke
Cloud Levels
  • Scattered at 300' AGL
  • Scattered at 2,000' AGL

Feb-24@
03:00 UTC

Feb-24 @ 03:00 UTC

Feb-25@
00:00 UTC

Feb-25 @ 00:00 UTC

FM240300 19006G11MPS 9999 BKN030CB

From

From Standard forecast or significant change

Wind
  • 190° at 12 KTS
  • {Gusting to 21 KTS
Cloud Levels
  • Broken at 3,000' AGL

Feb-24@
09:00 UTC

Feb-24 @ 09:00 UTC

Feb-25@
00:00 UTC

Feb-25 @ 00:00 UTC

TEMPO 2409/2424 3100 -SHSN SCT004 BKN011CB

Temporary

Temporary Changes expected for less than half the time period

Conditions
Light Snow
Cloud Levels
  • Scattered at 400' AGL
  • Broken at 1,100' AGL